Time;durP1;ratioP1;P1;durP2;ratioP2;P2;SDS_P1;SDS_P2;PMS_P1;PMS_P2;Temp;Humidity;BMP_temperature;BMP_pressure;BME280_temperature;BME280_humidity;BME280_pressure;Samples;Min_cycle;Max_cycle;Signal;HPM_P1;HPM_P2
2022/04/08 14:37:30;;;;;;;9.85;2.55;;;21.40;48.60;;;;;;6016129;23;20073;31
2022/04/08 14:39:56;;;;;;;6.40;2.20;;;21.40;48.70;;;;;;4864263;29;20163;-71
2022/04/08 14:42:22;;;;;;;10.50;2.30;;;21.40;49.00;;;;;;4883341;29;20052;-70
2022/04/08 14:44:48;;;;;;;6.35;2.10;;;21.40;48.80;;;;;;4884672;29;20539;-71
2022/04/08 14:47:14;;;;;;;6.38;2.40;;;21.40;48.50;;;;;;4878164;29;20054;-71
2022/04/08 14:49:42;;;;;;;5.60;2.13;;;21.40;48.90;;;;;;4879647;29;20064;-71
2022/04/08 14:52:08;;;;;;;5.20;2.20;;;21.40;48.70;;;;;;4930343;23;20055;-76
2022/04/08 14:54:34;;;;;;;6.32;2.42;;;21.40;49.00;;;;;;4915257;29;20031;-76
2022/04/08 14:57:00;;;;;;;8.93;2.45;;;21.40;48.90;;;;;;4916635;29;20032;-76
2022/04/08 14:59:26;;;;;;;4.05;2.00;;;21.40;49.00;;;;;;4917223;29;20032;-76
2022/04/08 15:01:51;;;;;;;7.47;2.00;;;21.40;49.00;;;;;;4931907;29;20118;-76
2022/04/08 15:04:17;;;;;;;7.05;2.03;;;21.40;48.90;;;;;;4935170;29;20123;-76
2022/04/08 15:06:43;;;;;;;4.68;2.25;;;21.40;48.90;;;;;;4915853;29;20487;-76
2022/04/08 15:09:08;;;;;;;6.35;2.40;;;21.40;49.00;;;;;;4934773;29;20061;-76
2022/04/08 15:11:34;;;;;;;3.08;1.88;;;21.40;49.00;;;;;;4935535;29;20034;-76
2022/04/08 15:14:00;;;;;;;3.08;2.00;;;21.40;49.10;;;;;;4936189;29;20123;-76
2022/04/08 15:16:26;;;;;;;4.60;1.95;;;21.40;49.40;;;;;;4934759;29;20038;-76
2022/04/08 15:18:52;;;;;;;4.70;2.25;;;21.40;49.10;;;;;;4934622;28;20435;-75
2022/04/08 15:21:18;;;;;;;6.35;2.30;;;21.40;49.20;;;;;;4934543;29;20030;-76
2022/04/08 15:23:43;;;;;;;6.15;1.88;;;21.40;49.10;;;;;;4935836;29;20388;-75
2022/04/08 15:26:09;;;;;;;6.70;2.53;;;21.50;49.00;;;;;;4935783;29;20032;-76
2022/04/08 15:28:35;;;;;;;9.20;3.17;;;21.40;48.80;;;;;;4935587;29;20020;-76
2022/04/08 15:31:00;;;;;;;9.77;3.20;;;21.40;48.60;;;;;;4935810;29;20031;-76
2022/04/08 15:33:26;;;;;;;11.55;3.50;;;21.50;48.60;;;;;;4934674;29;20027;-77
2022/04/08 15:35:52;;;;;;;6.65;3.15;;;21.40;48.60;;;;;;4935484;29;20369;-76
2022/04/08 15:38:18;;;;;;;6.40;3.15;;;21.40;48.60;;;;;;4935384;29;20484;-77
2022/04/08 15:40:44;;;;;;;5.90;3.17;;;21.40;48.70;;;;;;4934530;29;20262;-77
2022/04/08 15:43:11;;;;;;;10.38;3.22;;;21.40;49.10;;;;;;4935617;29;20032;-76
2022/04/08 15:45:39;;;;;;;5.25;2.72;;;21.40;48.90;;;;;;4930400;29;20480;-76
2022/04/08 15:48:08;;;;;;;6.50;2.88;;;21.40;48.80;;;;;;4929992;29;20543;-76
2022/04/08 15:50:34;;;;;;;10.65;2.95;;;21.40;48.80;;;;;;4931785;29;20043;-76
2022/04/08 15:53:00;;;;;;;7.32;3.28;;;21.40;48.80;;;;;;4932405;29;20039;-77
2022/04/08 15:55:26;;;;;;;11.07;3.65;;;21.40;48.80;;;;;;4932995;29;20027;-73
2022/04/08 15:57:52;;;;;;;7.88;4.22;;;21.40;48.70;;;;;;4930986;29;20028;-72
2022/04/08 16:00:18;;;;;;;22.83;15.02;;;21.40;48.70;;;;;;4932991;29;20038;-73
2022/04/08 16:02:45;;;;;;;21.50;13.68;;;21.20;44.40;;;;;;4933398;29;20400;-76
2022/04/08 16:05:11;;;;;;;22.25;13.45;;;21.10;42.80;;;;;;4934824;29;20118;-77
2022/04/08 16:07:37;;;;;;;20.45;13.77;;;21.10;43.50;;;;;;4933670;29;20119;-76
2022/04/08 16:10:04;;;;;;;24.73;14.07;;;21.10;44.10;;;;;;4931668;29;20087;-75
2022/04/08 16:12:29;;;;;;;18.50;12.77;;;21.20;43.80;;;;;;4932599;29;20116;-75
2022/04/08 16:14:55;;;;;;;21.02;12.60;;;21.20;44.30;;;;;;4931583;29;20032;-76
2022/04/08 16:17:21;;;;;;;20.00;13.55;;;21.20;43.80;;;;;;4932298;29;20447;-76
2022/04/08 16:19:47;;;;;;;20.45;13.02;;;21.30;44.00;;;;;;4928204;29;20032;-76
2022/04/08 16:22:13;;;;;;;21.17;12.57;;;21.30;44.20;;;;;;4931751;29;20035;-75
2022/04/08 16:24:38;;;;;;;21.67;15.32;;;21.30;44.40;;;;;;4932655;29;20507;-76
2022/04/08 16:27:04;;;;;;;21.08;12.27;;;21.30;44.50;;;;;;4931963;29;20028;-76
2022/04/08 16:29:30;;;;;;;20.90;11.43;;;21.40;45.10;;;;;;4932089;29;20035;-75
2022/04/08 16:31:56;;;;;;;22.63;11.98;;;21.40;45.50;;;;;;4932781;29;20031;-75
2022/04/08 16:34:21;;;;;;;21.65;11.32;;;21.40;45.10;;;;;;4929947;29;20039;-75
2022/04/08 16:36:47;;;;;;;21.67;11.88;;;21.40;45.20;;;;;;4932376;29;20039;-72
2022/04/08 16:39:13;;;;;;;18.75;11.45;;;21.40;45.30;;;;;;4930952;29;20055;-73
2022/04/08 16:41:39;;;;;;;19.88;11.57;;;21.40;45.30;;;;;;4930336;29;20067;-72
2022/04/08 16:44:05;;;;;;;24.00;11.70;;;21.40;45.60;;;;;;4932706;29;20039;-75
2022/04/08 16:46:31;;;;;;;22.83;11.57;;;21.50;47.40;;;;;;4932439;29;20048;-76
2022/04/08 16:48:56;;;;;;;19.85;11.23;;;21.50;46.70;;;;;;4931531;29;20119;-76
2022/04/08 16:51:22;;;;;;;18.20;11.35;;;21.50;46.40;;;;;;4932044;29;20027;-75
2022/04/08 16:53:48;;;;;;;18.83;11.52;;;21.50;46.20;;;;;;4926960;29;20032;-76
2022/04/08 16:56:14;;;;;;;22.60;11.52;;;21.50;47.00;;;;;;4927874;29;20034;-75
2022/04/08 16:58:40;;;;;;;23.15;12.45;;;21.50;47.10;;;;;;4935006;29;20028;-76
2022/04/08 17:01:05;;;;;;;24.17;11.10;;;21.50;47.50;;;;;;4937956;29;20476;-77
2022/04/08 17:03:31;;;;;;;20.17;10.82;;;21.50;46.40;;;;;;4938210;29;20032;-77
2022/04/08 17:05:57;;;;;;;25.60;11.43;;;21.50;46.60;;;;;;4937038;29;20028;-77
2022/04/08 17:08:23;;;;;;;19.58;11.18;;;21.50;46.70;;;;;;4938040;29;20064;-77
2022/04/08 17:10:51;;;;;;;20.77;10.75;;;21.50;46.40;;;;;;4938282;29;20045;-77
2022/04/08 17:13:17;;;;;;;17.83;10.73;;;21.50;46.70;;;;;;4921842;29;20396;-77
2022/04/08 17:15:43;;;;;;;18.17;10.93;;;21.50;46.70;;;;;;4938304;29;20028;-76
2022/04/08 17:18:09;;;;;;;20.90;11.18;;;21.40;46.70;;;;;;4938009;29;20083;-76
2022/04/08 17:20:35;;;;;;;18.25;11.27;;;21.40;46.40;;;;;;4938068;29;20110;-76
2022/04/08 17:23:00;;;;;;;18.73;11.73;;;21.40;46.20;;;;;;4937880;29;20119;-76
2022/04/08 17:25:26;;;;;;;20.17;10.43;;;21.40;46.30;;;;;;4938143;29;20370;-76
2022/04/08 17:27:52;;;;;;;23.02;10.90;;;21.40;46.30;;;;;;4937526;29;20031;-75
2022/04/08 17:30:18;;;;;;;19.42;11.02;;;21.40;46.40;;;;;;4936793;29;20035;-75
2022/04/08 17:32:43;;;;;;;23.17;10.70;;;21.40;46.60;;;;;;4938076;29;20580;-75
2022/04/08 17:35:13;;;;;;;22.20;11.18;;;21.40;47.00;;;;;;4937865;29;20032;-77
2022/04/08 17:37:39;;;;;;;21.10;10.77;;;21.40;47.00;;;;;;4936484;29;20038;-77
2022/04/08 17:40:06;;;;;;;30.65;10.70;;;21.40;46.80;;;;;;4937839;29;20031;-76
2022/04/08 17:42:35;;;;;;;33.80;13.55;;;21.40;46.90;;;;;;4937737;29;20099;-76
2022/04/08 17:45:03;;;;;;;28.13;10.82;;;21.40;47.10;;;;;;4937846;29;20031;-76
2022/04/08 17:47:28;;;;;;;34.30;11.38;;;21.40;47.20;;;;;;4936283;29;20031;-76
2022/04/08 17:49:54;;;;;;;29.88;11.35;;;21.40;47.20;;;;;;4936532;29;20051;-76
2022/04/08 17:52:20;;;;;;;29.58;10.38;;;21.40;47.10;;;;;;4936390;29;20126;-77
2022/04/08 17:54:45;;;;;;;22.70;10.63;;;21.40;47.00;;;;;;4936460;29;20031;-76
2022/04/08 17:57:11;;;;;;;27.02;11.07;;;21.50;47.30;;;;;;4937237;29;20118;-76
2022/04/08 17:59:37;;;;;;;29.20;10.93;;;21.40;47.70;;;;;;4937417;29;20056;-75
2022/04/08 18:02:05;;;;;;;22.92;10.23;;;21.40;47.30;;;;;;4937500;29;20042;-77
2022/04/08 18:04:32;;;;;;;24.33;10.55;;;21.40;48.50;;;;;;4936232;29;20035;-78
2022/04/08 18:06:58;;;;;;;35.28;10.27;;;21.40;48.40;;;;;;4937306;29;20031;-78
2022/04/08 18:09:24;;;;;;;33.42;11.63;;;21.40;46.70;;;;;;4936877;29;20082;-79
2022/04/08 18:11:49;;;;;;;24.15;10.68;;;21.40;47.90;;;;;;4937358;29;20036;-78
2022/04/08 18:14:16;;;;;;;22.25;10.35;;;21.50;49.60;;;;;;4937393;29;20472;-81
2022/04/08 18:16:41;;;;;;;30.45;10.20;;;21.50;49.10;;;;;;4920400;29;20043;-80
2022/04/08 18:19:07;;;;;;;24.13;8.82;;;21.50;47.60;;;;;;4935820;29;20032;-81
2022/04/08 18:21:33;;;;;;;28.15;9.68;;;21.40;47.70;;;;;;4936201;29;20471;-82
2022/04/08 18:23:58;;;;;;;22.55;9.57;;;21.40;47.00;;;;;;4937350;29;20508;-83
2022/04/08 18:26:26;;;;;;;22.63;10.50;;;21.50;47.60;;;;;;4937065;29;20110;-79
2022/04/08 18:28:51;;;;;;;26.77;9.70;;;21.40;47.30;;;;;;4936690;29;20024;-80
2022/04/08 18:31:17;;;;;;;25.20;9.68;;;21.40;46.70;;;;;;4937183;29;20032;-79
2022/04/08 18:33:43;;;;;;;20.60;8.88;;;21.40;46.90;;;;;;4935042;29;20035;-76
2022/04/08 18:36:09;;;;;;;22.17;10.90;;;21.40;47.00;;;;;;4937315;29;20034;-77
2022/04/08 18:38:37;;;;;;;25.50;10.18;;;21.40;47.00;;;;;;4935223;29;20032;-79
2022/04/08 18:41:03;;;;;;;21.35;9.27;;;21.40;47.30;;;;;;4935502;29;20381;-77
2022/04/08 18:43:29;;;;;;;19.95;8.70;;;21.40;47.10;;;;;;4936704;29;20058;-80
2022/04/08 18:45:55;;;;;;;19.92;8.90;;;21.40;47.40;;;;;;4936751;29;20055;-73
2022/04/08 18:48:22;;;;;;;18.13;8.93;;;21.40;47.20;;;;;;4936533;29;20059;-75
2022/04/08 18:50:48;;;;;;;19.75;8.75;;;21.40;47.20;;;;;;4936457;29;20024;-74
2022/04/08 18:53:15;;;;;;;18.75;8.50;;;21.40;47.20;;;;;;4936719;29;20141;-74
2022/04/08 18:55:41;;;;;;;17.23;8.45;;;21.40;47.30;;;;;;4935947;29;20059;-74
2022/04/08 18:58:06;;;;;;;20.95;8.15;;;21.40;47.40;;;;;;4935024;29;20063;-74
2022/04/08 19:00:33;;;;;;;25.63;8.73;;;21.40;47.40;;;;;;4935162;29;20475;-74
2022/04/08 19:02:59;;;;;;;19.48;8.00;;;21.40;47.40;;;;;;4935142;29;20111;-75
2022/04/08 19:05:25;;;;;;;20.45;8.50;;;21.40;47.50;;;;;;4932300;29;20115;-74
2022/04/08 19:07:51;;;;;;;22.90;8.27;;;21.40;47.50;;;;;;4941168;29;20032;-74
2022/04/08 19:10:17;;;;;;;21.67;7.57;;;21.50;47.70;;;;;;4935904;29;20028;-75
2022/04/08 19:12:43;;;;;;;20.05;8.23;;;21.50;47.70;;;;;;4935793;29;20039;-74
2022/04/08 19:15:10;;;;;;;17.65;7.88;;;21.50;47.70;;;;;;4934632;29;20094;-73
2022/04/08 19:17:36;;;;;;;21.00;9.43;;;21.50;47.80;;;;;;4921527;29;20035;-75
2022/04/08 19:20:04;;;;;;;20.80;8.50;;;21.50;48.00;;;;;;4924250;29;20031;-76
2022/04/08 19:22:30;;;;;;;19.27;8.25;;;21.60;48.50;;;;;;4926232;29;20090;-75
2022/04/08 19:24:56;;;;;;;20.55;8.18;;;21.60;48.70;;;;;;4925294;29;20037;-75
2022/04/08 19:27:21;;;;;;;22.58;8.43;;;21.70;49.70;;;;;;4926404;29;20139;-75
2022/04/08 19:29:47;;;;;;;22.02;8.18;;;21.70;51.60;;;;;;4927831;29;20016;-76
2022/04/08 19:32:13;;;;;;;20.70;8.45;;;21.80;51.70;;;;;;4925638;29;20059;-75
2022/04/08 19:34:40;;;;;;;19.15;10.00;;;21.80;52.50;;;;;;4924088;29;20023;-75
2022/04/08 19:37:06;;;;;;;24.77;8.88;;;21.90;53.80;;;;;;4923971;29;20035;-77
2022/04/08 19:39:32;;;;;;;20.38;9.10;;;21.90;53.80;;;;;;4925794;29;20389;-76
2022/04/08 19:41:58;;;;;;;18.02;7.70;;;22.10;55.80;;;;;;4924656;29;20114;-77
2022/04/08 19:44:24;;;;;;;18.27;7.82;;;22.10;55.80;;;;;;4925391;29;20027;-76
2022/04/08 19:46:50;;;;;;;17.80;7.43;;;22.10;58.30;;;;;;4908690;29;20634;-77
2022/04/08 19:49:15;;;;;;;17.42;8.43;;;22.20;58.10;;;;;;4924562;29;20035;-77
2022/04/08 19:51:41;;;;;;;19.77;8.40;;;22.20;58.40;;;;;;4927857;29;20515;-77
2022/04/08 19:54:07;;;;;;;16.40;7.88;;;22.20;60.00;;;;;;4927981;29;20027;-77
2022/04/08 19:56:34;;;;;;;18.55;7.55;;;22.10;57.40;;;;;;4925388;29;20110;-77
2022/04/08 19:59:00;;;;;;;17.77;7.13;;;22.10;57.10;;;;;;4929260;29;20046;-76
2022/04/08 20:01:27;;;;;;;19.80;8.52;;;22.10;57.80;;;;;;4920079;28;20024;-75
2022/04/08 20:03:52;;;;;;;16.20;8.73;;;22.10;56.90;;;;;;4917205;29;20046;-76
2022/04/08 20:06:18;;;;;;;18.27;7.22;;;22.10;57.90;;;;;;4919234;29;20028;-75
2022/04/08 20:08:45;;;;;;;14.07;6.85;;;22.10;58.00;;;;;;4919235;29;20055;-75
2022/04/08 20:11:10;;;;;;;16.77;7.35;;;22.10;57.20;;;;;;4920013;29;20030;-75
2022/04/08 20:13:39;;;;;;;14.45;6.95;;;22.10;56.40;;;;;;4924079;29;20032;-75
2022/04/08 20:16:05;;;;;;;14.40;6.32;;;22.10;56.70;;;;;;4925221;29;20035;-75
2022/04/08 20:18:31;;;;;;;15.80;5.97;;;22.10;56.80;;;;;;4928815;29;20031;-74
2022/04/08 20:20:57;;;;;;;18.25;6.65;;;22.10;56.50;;;;;;4924493;29;20038;-75
2022/04/08 20:23:23;;;;;;;16.40;6.25;;;22.00;56.30;;;;;;4924689;29;20031;-76
2022/04/08 20:25:48;;;;;;;19.83;6.03;;;22.00;55.90;;;;;;4926395;29;20116;-74
2022/04/08 20:28:14;;;;;;;26.20;5.85;;;22.00;55.70;;;;;;4924792;29;20436;-75
2022/04/08 20:30:40;;;;;;;14.95;6.78;;;22.00;55.40;;;;;;4925790;29;20475;-76
2022/04/08 20:33:06;;;;;;;13.73;4.97;;;22.00;55.10;;;;;;4923537;29;20087;-75
2022/04/08 20:35:32;;;;;;;13.18;5.40;;;21.90;54.60;;;;;;4928039;29;20056;-74
2022/04/08 20:38:02;;;;;;;10.85;4.40;;;21.90;54.60;;;;;;4892172;29;20546;-75
2022/04/08 20:40:29;;;;;;;13.88;4.72;;;21.90;54.20;;;;;;4892932;29;20051;-74
2022/04/08 20:42:57;;;;;;;11.65;4.60;;;21.90;53.70;;;;;;4921456;29;20059;-75
2022/04/08 20:45:24;;;;;;;12.48;4.80;;;21.90;53.40;;;;;;4924625;29;20031;-76
2022/04/08 20:47:50;;;;;;;14.27;5.47;;;21.90;53.10;;;;;;4922810;29;20019;-76
2022/04/08 20:50:15;;;;;;;17.58;4.85;;;21.90;53.00;;;;;;4923830;29;20038;-75
2022/04/08 20:52:41;;;;;;;20.63;17.45;;;21.90;52.30;;;;;;4925964;29;20032;-76
2022/04/08 20:55:08;;;;;;;14.82;4.97;;;21.90;52.30;;;;;;4926499;29;20047;-77
2022/04/08 20:57:34;;;;;;;13.68;4.63;;;21.90;52.50;;;;;;4927769;29;20106;-77
2022/04/08 21:00:00;;;;;;;16.73;4.63;;;21.90;52.00;;;;;;4909257;29;20050;-77
2022/04/08 21:02:26;;;;;;;12.85;3.92;;;21.90;52.20;;;;;;4926853;29;20032;-77
2022/04/08 21:04:52;;;;;;;13.95;7.00;;;21.90;52.20;;;;;;4909772;29;20027;-77
2022/04/08 21:07:18;;;;;;;18.25;4.40;;;21.90;51.90;;;;;;4925867;29;20055;-76
2022/04/08 21:09:45;;;;;;;14.32;4.68;;;21.90;51.70;;;;;;4922790;29;20037;-76
2022/04/08 21:12:12;;;;;;;13.90;4.85;;;21.90;51.50;;;;;;4924211;29;20036;-77
2022/04/08 21:14:38;;;;;;;20.42;5.18;;;21.90;51.60;;;;;;4926664;29;20028;-76
2022/04/08 21:17:04;;;;;;;13.05;4.60;;;21.90;51.70;;;;;;4926719;29;20079;-77
2022/04/08 21:19:30;;;;;;;14.35;4.00;;;21.90;51.80;;;;;;4924655;29;20043;-77
2022/04/08 21:21:56;;;;;;;13.65;4.50;;;21.90;51.90;;;;;;4925114;29;20048;-78
2022/04/08 21:24:22;;;;;;;16.60;4.72;;;21.90;52.00;;;;;;4923849;29;20066;-77
2022/04/08 21:26:48;;;;;;;12.40;4.30;;;21.90;52.10;;;;;;4930123;29;20035;-76
2022/04/08 21:29:14;;;;;;;10.32;4.22;;;21.90;52.10;;;;;;4923884;29;20028;-76
2022/04/08 21:31:41;;;;;;;14.25;3.90;;;21.90;52.30;;;;;;4926280;29;20063;-77
2022/04/08 21:34:08;;;;;;;11.80;4.07;;;21.90;52.30;;;;;;4925937;29;20094;-76
2022/04/08 21:36:35;;;;;;;10.30;3.40;;;21.90;52.40;;;;;;4928630;29;20486;-76
2022/04/08 21:39:02;;;;;;;11.60;4.25;;;21.90;52.50;;;;;;4927995;29;20047;-76
2022/04/08 21:41:28;;;;;;;12.48;3.92;;;21.90;52.50;;;;;;4922971;29;20036;-77
2022/04/08 21:43:54;;;;;;;10.40;3.85;;;21.90;52.60;;;;;;4909926;29;20048;-76
2022/04/08 21:46:20;;;;;;;10.38;3.90;;;21.90;52.60;;;;;;4926866;29;20370;-77
2022/04/08 21:48:49;;;;;;;10.45;3.78;;;21.90;52.60;;;;;;4926559;29;20079;-77
2022/04/08 21:51:15;;;;;;;17.00;4.18;;;21.90;52.70;;;;;;4929149;29;20249;-77
2022/04/08 21:53:41;;;;;;;11.68;3.65;;;21.90;52.70;;;;;;4931295;29;20510;-76
2022/04/08 21:56:07;;;;;;;12.00;4.05;;;21.80;52.60;;;;;;4907292;29;20035;-75
2022/04/08 21:58:33;;;;;;;10.23;3.70;;;21.80;52.60;;;;;;4914088;29;20039;-75
2022/04/08 22:01:00;;;;;;;12.85;3.95;;;21.90;52.70;;;;;;4928553;29;20020;-75
2022/04/08 22:03:28;;;;;;;12.05;4.43;;;21.90;52.70;;;;;;4928887;29;20035;-75
2022/04/08 22:05:54;;;;;;;15.38;5.82;;;21.80;52.40;;;;;;4928031;29;20035;-75
2022/04/08 22:08:21;;;;;;;13.07;5.53;;;21.90;52.30;;;;;;4933136;29;20778;-74
2022/04/08 22:10:48;;;;;;;12.10;5.55;;;21.90;52.30;;;;;;4933644;29;20376;-76
2022/04/08 22:13:15;;;;;;;11.68;6.00;;;21.90;52.30;;;;;;4930560;29;20130;-76
2022/04/08 22:15:42;;;;;;;18.63;5.88;;;21.90;52.30;;;;;;4934279;29;20424;-76
2022/04/08 22:18:09;;;;;;;20.27;5.68;;;21.90;52.30;;;;;;4934640;29;20391;-76
2022/04/08 22:20:40;;;;;;;13.32;5.63;;;21.90;52.40;;;;;;4933691;29;20095;-77
2022/04/08 22:23:07;;;;;;;14.02;5.20;;;21.90;52.50;;;;;;4934463;29;20043;-76
2022/04/08 22:25:33;;;;;;;13.38;5.50;;;21.80;52.50;;;;;;4934297;29;20424;-75
2022/04/08 22:27:59;;;;;;;14.27;4.65;;;21.90;52.70;;;;;;4932698;29;20032;-75
2022/04/08 22:30:26;;;;;;;17.00;4.90;;;21.80;52.60;;;;;;4928801;29;20399;-75
2022/04/08 22:32:51;;;;;;;14.27;5.28;;;21.80;52.60;;;;;;4933389;29;20108;-75
2022/04/08 22:35:17;;;;;;;9.15;4.35;;;21.80;52.60;;;;;;4934816;29;20144;-75
2022/04/08 22:37:43;;;;;;;12.43;4.85;;;21.80;52.70;;;;;;4933571;29;20035;-75
2022/04/08 22:40:10;;;;;;;13.35;4.60;;;21.80;52.70;;;;;;4932985;29;20028;-75
2022/04/08 22:42:37;;;;;;;21.48;5.97;;;21.80;52.60;;;;;;4934471;29;20035;-72
2022/04/08 22:45:07;;;;;;;13.52;4.60;;;21.80;52.70;;;;;;4935451;29;20039;-72
2022/04/08 22:47:33;;;;;;;11.85;4.32;;;21.80;52.70;;;;;;4932079;29;20779;-72
2022/04/08 22:49:59;;;;;;;12.75;4.53;;;21.80;53.10;;;;;;4935597;29;20392;-72
2022/04/08 22:52:25;;;;;;;12.30;4.70;;;21.80;54.40;;;;;;4935207;29;20028;-72
2022/04/08 22:54:51;;;;;;;20.83;4.50;;;21.90;57.00;;;;;;4936216;29;20023;-72
2022/04/08 22:57:18;;;;;;;12.80;4.47;;;22.00;57.10;;;;;;4933574;29;20035;-73
2022/04/08 22:59:48;;;;;;;10.90;4.75;;;22.00;60.00;;;;;;4934900;29;20058;-73
2022/04/08 23:02:14;;;;;;;;;;;22.10;58.20;;;;;;4936627;29;20031;-72
2022/04/08 23:04:40;;;;;;;84.05;61.47;;;22.00;57.80;;;;;;4936372;29;19912;-72
2022/04/08 23:07:06;;;;;;;71.30;53.35;;;21.90;52.20;;;;;;4935938;29;20027;-72
2022/04/08 23:09:35;;;;;;;60.65;45.20;;;21.70;51.00;;;;;;4903728;29;20388;-73
2022/04/08 23:12:01;;;;;;;72.35;56.13;;;21.80;56.30;;;;;;4934773;29;20027;-73
2022/04/08 23:14:28;;;;;;;69.32;57.13;;;21.80;57.00;;;;;;4934995;29;20051;-72
2022/04/08 23:16:53;;;;;;;74.60;58.88;;;21.90;57.40;;;;;;4934695;29;20042;-73
2022/04/08 23:19:19;;;;;;;71.07;54.78;;;21.90;58.50;;;;;;4934427;29;20043;-73
2022/04/08 23:21:45;;;;;;;64.72;51.13;;;22.00;60.30;;;;;;4918903;29;20660;-72
2022/04/08 23:24:13;;;;;;;62.53;49.72;;;22.00;60.70;;;;;;4918982;29;20042;-73
2022/04/08 23:26:39;;;;;;;65.43;46.63;;;22.00;59.90;;;;;;4934110;29;20058;-72
2022/04/08 23:29:05;;;;;;;65.63;46.78;;;22.00;59.10;;;;;;4934523;29;20491;-72
2022/04/08 23:31:32;;;;;;;62.53;47.25;;;22.00;58.70;;;;;;4934538;29;20031;-73
2022/04/08 23:33:59;;;;;;;59.03;43.90;;;22.00;58.50;;;;;;4934488;29;20032;-73
2022/04/08 23:36:25;;;;;;;54.53;38.35;;;22.00;57.80;;;;;;4935425;29;20026;-74
2022/04/08 23:38:51;;;;;;;49.00;37.13;;;22.00;57.50;;;;;;4934122;29;20114;-75
2022/04/08 23:41:16;;;;;;;53.88;36.40;;;22.00;56.90;;;;;;4932458;29;20040;-73
2022/04/08 23:43:42;;;;;;;54.05;37.30;;;22.00;56.40;;;;;;4934979;29;20452;-73
2022/04/08 23:46:08;;;;;;;45.85;37.17;;;22.00;57.50;;;;;;4933769;29;20055;-72
2022/04/08 23:48:34;;;;;;;50.67;36.72;;;22.00;56.50;;;;;;4935100;29;20495;-72
2022/04/08 23:51:00;;;;;;;50.35;37.65;;;21.90;56.50;;;;;;4934027;29;20075;-73
2022/04/08 23:53:26;;;;;;;50.08;37.42;;;21.90;56.10;;;;;;4934979;29;20390;-72
2022/04/08 23:55:52;;;;;;;48.50;36.33;;;21.90;56.00;;;;;;4932971;29;20393;-72
2022/04/08 23:58:17;;;;;;;47.53;35.75;;;21.90;55.60;;;;;;4935239;29;20127;-73
